Time;durP1;ratioP1;P1;durP2;ratioP2;P2;SDS_P1;SDS_P2;PMS_P1;PMS_P2;Temp;Humidity;BMP_temperature;BMP_pressure;BME280_temperature;BME280_humidity;BME280_pressure;Samples;Min_cycle;Max_cycle;Signal;HPM_P1;HPM_P2
2024/01/28 00:00:37;;;;;;;1.52;1.15;;;;;;;;;;5016383;28;20038;-32
2024/01/28 00:03:03;;;;;;;1.33;1.00;;;;;;;;;;5014363;28;20108;-30
2024/01/28 00:05:29;;;;;;;2.17;1.10;;;;;;;;;;5015581;28;20072;-29
2024/01/28 00:07:55;;;;;;;1.10;1.00;;;;;;;;;;5015203;28;20026;-30
2024/01/28 00:10:22;;;;;;;1.08;0.98;;;;;;;;;;5015763;28;20033;-29
2024/01/28 00:12:48;;;;;;;1.20;1.00;;;;;;;;;;5015257;28;20097;-29
2024/01/28 00:15:14;;;;;;;0.80;0.80;;;;;;;;;;5015086;28;20040;-28
2024/01/28 00:17:40;;;;;;;1.20;1.10;;;;;;;;;;5015316;28;20096;-30
2024/01/28 00:20:07;;;;;;;1.20;1.05;;;;;;;;;;5015837;28;20056;-29
2024/01/28 00:22:33;;;;;;;1.08;0.90;;;;;;;;;;5014968;28;20369;-28
2024/01/28 00:24:59;;;;;;;1.25;0.88;;;;;;;;;;5014980;28;20033;-30
2024/01/28 00:27:26;;;;;;;1.50;1.10;;;;;;;;;;5015258;28;20417;-30
2024/01/28 00:29:52;;;;;;;1.15;1.05;;;;;;;;;;5013947;28;20041;-30
2024/01/28 00:32:19;;;;;;;1.30;0.80;;;;;;;;;;5015102;28;20091;-31
2024/01/28 00:34:46;;;;;;;0.95;0.95;;;;;;;;;;5014821;28;20042;-30
2024/01/28 00:37:12;;;;;;;0.70;0.70;;;;;;;;;;5014790;28;20030;-30
2024/01/28 00:39:38;;;;;;;1.58;1.13;;;;;;;;;;5015117;28;20021;-30
2024/01/28 00:42:05;;;;;;;0.80;0.80;;;;;;;;;;5013832;28;20101;-30
2024/01/28 00:44:31;;;;;;;1.38;1.10;;;;;;;;;;5014772;28;20026;-28
2024/01/28 00:46:58;;;;;;;1.45;1.23;;;;;;;;;;5015035;28;20097;-28
2024/01/28 00:49:29;;;;;;;1.30;0.98;;;;;;;;;;5013762;28;20026;-26
2024/01/28 00:51:56;;;;;;;0.98;0.98;;;;;;;;;;5014644;28;20029;-29
2024/01/28 00:54:23;;;;;;;1.15;0.80;;;;;;;;;;5015240;28;20029;-31
2024/01/28 00:56:49;;;;;;;0.85;0.77;;;;;;;;;;5014830;28;20026;-29
2024/01/28 00:59:15;;;;;;;1.02;0.77;;;;;;;;;;5014656;28;20050;-31
2024/01/28 01:01:42;;;;;;;1.23;1.13;;;;;;;;;;5014925;28;20026;-30
2024/01/28 01:04:08;;;;;;;1.35;0.98;;;;;;;;;;5014343;28;20062;-28
2024/01/28 01:06:34;;;;;;;0.95;0.93;;;;;;;;;;5014635;28;20101;-31
2024/01/28 01:09:00;;;;;;;0.80;0.80;;;;;;;;;;5015092;28;20056;-30
2024/01/28 01:11:26;;;;;;;1.15;0.90;;;;;;;;;;5014588;28;20056;-28
2024/01/28 01:13:52;;;;;;;0.77;0.77;;;;;;;;;;5014027;28;20030;-25
2024/01/28 01:16:18;;;;;;;2.03;1.10;;;;;;;;;;5018595;28;20029;-25
2024/01/28 01:18:45;;;;;;;0.98;0.98;;;;;;;;;;5018315;28;20026;-27
2024/01/28 01:21:11;;;;;;;1.30;0.98;;;;;;;;;;5018245;28;20025;-30
2024/01/28 01:23:37;;;;;;;1.10;1.00;;;;;;;;;;5018188;28;20419;-32
2024/01/28 01:26:03;;;;;;;1.10;1.00;;;;;;;;;;5018237;28;20022;-30
2024/01/28 01:28:33;;;;;;;1.00;0.90;;;;;;;;;;5018374;28;20072;-32
2024/01/28 01:30:59;;;;;;;1.70;1.40;;;;;;;;;;5018352;28;20108;-26
2024/01/28 01:33:25;;;;;;;1.15;1.05;;;;;;;;;;5018253;28;20040;-28
2024/01/28 01:35:52;;;;;;;1.10;1.00;;;;;;;;;;5018015;28;20079;-32
2024/01/28 01:38:18;;;;;;;1.23;0.80;;;;;;;;;;5018620;28;20038;-30
2024/01/28 01:40:44;;;;;;;1.00;0.85;;;;;;;;;;5017850;28;20026;-31
2024/01/28 01:43:10;;;;;;;0.65;0.65;;;;;;;;;;5017774;28;20110;-31
2024/01/28 01:45:42;;;;;;;1.30;1.10;;;;;;;;;;5017775;28;20037;-33
2024/01/28 01:48:10;;;;;;;0.95;0.88;;;;;;;;;;5017795;28;20335;-32
2024/01/28 01:50:37;;;;;;;1.23;1.08;;;;;;;;;;5017719;28;20029;-30
2024/01/28 01:53:04;;;;;;;1.13;1.02;;;;;;;;;;5017865;28;20076;-29
2024/01/28 01:55:30;;;;;;;0.90;0.90;;;;;;;;;;5017904;28;20026;-30
2024/01/28 01:57:58;;;;;;;1.38;1.27;;;;;;;;;;5018021;28;20026;-29
2024/01/28 02:00:24;;;;;;;1.00;0.93;;;;;;;;;;5017647;28;20057;-31
2024/01/28 02:02:50;;;;;;;1.48;1.13;;;;;;;;;;5017707;28;20060;-32
2024/01/28 02:05:16;;;;;;;1.00;1.00;;;;;;;;;;5017778;28;20042;-29
2024/01/28 02:07:42;;;;;;;0.65;0.65;;;;;;;;;;5017682;28;20030;-35
2024/01/28 02:10:09;;;;;;;1.10;1.00;;;;;;;;;;5017881;28;20026;-30
2024/01/28 02:12:36;;;;;;;1.40;1.10;;;;;;;;;;5017443;28;20096;-29
2024/01/28 02:15:05;;;;;;;1.00;0.90;;;;;;;;;;5017503;28;20036;-28
2024/01/28 02:17:32;;;;;;;2.35;1.20;;;;;;;;;;5017671;28;20033;-29
2024/01/28 02:19:59;;;;;;;0.80;0.80;;;;;;;;;;5017212;28;20410;-32
2024/01/28 02:22:25;;;;;;;1.00;1.00;;;;;;;;;;5017075;28;20032;-29
2024/01/28 02:24:51;;;;;;;0.90;0.90;;;;;;;;;;5017050;28;20109;-30
2024/01/28 02:27:17;;;;;;;0.98;0.93;;;;;;;;;;5016067;28;20030;-31
2024/01/28 02:29:44;;;;;;;0.70;0.60;;;;;;;;;;5017274;28;20489;-31
2024/01/28 02:32:11;;;;;;;1.20;0.80;;;;;;;;;;5016897;28;20038;-28
2024/01/28 02:34:37;;;;;;;1.05;0.93;;;;;;;;;;5015987;28;20353;-30
2024/01/28 02:37:03;;;;;;;1.20;1.10;;;;;;;;;;5017067;28;20109;-29
2024/01/28 02:39:30;;;;;;;1.25;1.15;;;;;;;;;;5016822;28;20050;-26
2024/01/28 02:41:56;;;;;;;0.85;0.85;;;;;;;;;;5016964;28;20041;-28
2024/01/28 02:44:22;;;;;;;0.85;0.85;;;;;;;;;;5016754;28;20026;-29
2024/01/28 02:46:48;;;;;;;1.63;1.40;;;;;;;;;;5016923;28;20040;-32
2024/01/28 02:49:14;;;;;;;1.23;1.13;;;;;;;;;;5016891;28;20030;-31
2024/01/28 02:51:44;;;;;;;1.00;1.00;;;;;;;;;;5016858;28;20030;-30
2024/01/28 02:54:10;;;;;;;0.85;0.75;;;;;;;;;;5016409;28;20037;-26
2024/01/28 02:56:36;;;;;;;0.82;0.82;;;;;;;;;;5016954;28;20045;-29
2024/01/28 02:59:03;;;;;;;1.65;0.88;;;;;;;;;;5017248;28;20050;-28
2024/01/28 03:01:29;;;;;;;1.25;1.00;;;;;;;;;;5016358;28;20449;-30
2024/01/28 03:03:56;;;;;;;1.77;1.67;;;;;;;;;;5016205;28;20393;-29
2024/01/28 03:06:22;;;;;;;1.50;1.40;;;;;;;;;;5016325;28;20469;-31
2024/01/28 03:08:48;;;;;;;1.13;0.82;;;;;;;;;;5016296;28;20025;-34
2024/01/28 03:11:15;;;;;;;1.00;0.80;;;;;;;;;;5016233;28;20036;-30
2024/01/28 03:13:41;;;;;;;0.85;0.82;;;;;;;;;;5016383;28;20091;-29
2024/01/28 03:16:07;;;;;;;1.25;0.98;;;;;;;;;;5016136;28;20026;-28
2024/01/28 03:18:33;;;;;;;0.60;0.60;;;;;;;;;;5015066;28;20053;-27
2024/01/28 03:20:59;;;;;;;1.00;0.90;;;;;;;;;;5016544;28;20045;-28
2024/01/28 03:23:25;;;;;;;0.80;0.80;;;;;;;;;;5015945;28;20022;-30
2024/01/28 03:25:51;;;;;;;1.13;1.02;;;;;;;;;;5015955;28;20060;-32
2024/01/28 03:28:18;;;;;;;0.68;0.60;;;;;;;;;;5015915;28;20094;-30
2024/01/28 03:30:44;;;;;;;0.60;0.60;;;;;;;;;;5016161;28;20026;-33
2024/01/28 03:33:10;;;;;;;0.68;0.60;;;;;;;;;;5015868;28;20033;-27
2024/01/28 03:35:37;;;;;;;1.05;0.90;;;;;;;;;;5016347;28;20122;-29
2024/01/28 03:38:04;;;;;;;0.82;0.82;;;;;;;;;;5015459;28;20025;-29
2024/01/28 03:40:30;;;;;;;1.13;0.98;;;;;;;;;;5015982;28;20036;-27
2024/01/28 03:42:56;;;;;;;0.98;0.93;;;;;;;;;;5015754;28;20030;-26
2024/01/28 03:45:22;;;;;;;1.48;0.98;;;;;;;;;;5015638;28;20046;-29
2024/01/28 03:47:48;;;;;;;0.75;0.75;;;;;;;;;;5016092;28;20097;-33
2024/01/28 03:50:19;;;;;;;1.00;0.90;;;;;;;;;;5015814;28;20037;-30
2024/01/28 03:52:45;;;;;;;1.25;1.15;;;;;;;;;;5015764;28;20366;-32
2024/01/28 03:55:12;;;;;;;1.17;0.95;;;;;;;;;;5015479;28;20029;-31
2024/01/28 03:57:43;;;;;;;1.08;0.70;;;;;;;;;;5015334;28;20064;-29
2024/01/28 04:00:11;;;;;;;0.98;0.98;;;;;;;;;;5015375;28;20018;-30
2024/01/28 04:02:37;;;;;;;1.20;1.10;;;;;;;;;;5015521;28;20057;-31
2024/01/28 04:05:04;;;;;;;1.20;1.10;;;;;;;;;;5015118;28;20100;-30
2024/01/28 04:07:30;;;;;;;0.85;0.80;;;;;;;;;;5015568;28;20515;-30
2024/01/28 04:09:56;;;;;;;1.10;1.00;;;;;;;;;;5015215;28;20038;-28
2024/01/28 04:12:23;;;;;;;0.80;0.80;;;;;;;;;;5015146;28;20022;-29
2024/01/28 04:14:49;;;;;;;1.25;1.15;;;;;;;;;;5015140;28;20037;-27
2024/01/28 04:17:16;;;;;;;0.98;0.88;;;;;;;;;;5015583;28;20033;-27
2024/01/28 04:19:42;;;;;;;0.90;0.90;;;;;;;;;;5015073;28;20026;-27
2024/01/28 04:22:11;;;;;;;0.68;0.68;;;;;;;;;;5014976;28;20105;-28
2024/01/28 04:24:37;;;;;;;1.00;0.90;;;;;;;;;;5015288;28;20156;-29
2024/01/28 04:27:04;;;;;;;1.58;0.85;;;;;;;;;;5015291;28;20088;-29
2024/01/28 04:29:30;;;;;;;0.75;0.75;;;;;;;;;;5015268;28;20025;-28
2024/01/28 04:31:56;;;;;;;0.98;0.90;;;;;;;;;;5015147;28;20034;-30
2024/01/28 04:34:23;;;;;;;0.98;0.90;;;;;;;;;;5015136;28;20041;-31
2024/01/28 04:36:49;;;;;;;1.23;0.68;;;;;;;;;;5015360;28;20022;-28
2024/01/28 04:39:15;;;;;;;1.10;1.00;;;;;;;;;;5014874;28;20032;-31
2024/01/28 04:41:41;;;;;;;1.17;0.80;;;;;;;;;;5014859;28;20056;-32
2024/01/28 04:44:08;;;;;;;1.02;0.95;;;;;;;;;;5014750;28;20372;-29
2024/01/28 04:46:35;;;;;;;1.27;0.80;;;;;;;;;;5015324;28;20040;-32
2024/01/28 04:49:03;;;;;;;0.93;0.93;;;;;;;;;;5015396;28;20073;-30
2024/01/28 04:51:30;;;;;;;0.90;0.82;;;;;;;;;;5019142;28;20061;-30
2024/01/28 04:53:57;;;;;;;1.05;0.90;;;;;;;;;;5017807;28;20457;-30
2024/01/28 04:56:23;;;;;;;1.38;1.08;;;;;;;;;;5018674;28;20452;-28
2024/01/28 04:58:49;;;;;;;0.73;0.70;;;;;;;;;;5018693;28;20041;-34
2024/01/28 05:01:15;;;;;;;0.65;0.65;;;;;;;;;;5018973;28;20022;-31
2024/01/28 05:03:41;;;;;;;1.48;1.10;;;;;;;;;;5018522;28;20045;-30
2024/01/28 05:06:08;;;;;;;1.15;0.80;;;;;;;;;;5018580;28;20101;-30
2024/01/28 05:08:43;;;;;;;0.52;0.47;;;;;;;;;;5018798;28;20060;-29
2024/01/28 05:11:09;;;;;;;0.90;0.90;;;;;;;;;;5018784;28;20030;-30
2024/01/28 05:13:36;;;;;;;1.58;0.98;;;;;;;;;;5018426;28;20507;-32
2024/01/28 05:16:03;;;;;;;0.95;0.88;;;;;;;;;;5018691;28;20030;-33
2024/01/28 05:18:30;;;;;;;0.77;0.77;;;;;;;;;;5018277;28;20046;-31
2024/01/28 05:20:56;;;;;;;1.30;1.08;;;;;;;;;;5017348;28;20535;-30
2024/01/28 05:23:22;;;;;;;1.33;0.93;;;;;;;;;;5018473;28;20041;-33
2024/01/28 05:25:48;;;;;;;0.85;0.85;;;;;;;;;;5018259;28;20057;-32
2024/01/28 05:28:14;;;;;;;0.70;0.70;;;;;;;;;;5018526;28;20381;-32
2024/01/28 05:30:40;;;;;;;1.10;0.90;;;;;;;;;;5019459;28;20045;-29
2024/01/28 05:33:07;;;;;;;1.00;0.90;;;;;;;;;;5018055;28;20033;-30
2024/01/28 05:35:33;;;;;;;1.50;1.10;;;;;;;;;;5018021;28;20033;-30
2024/01/28 05:37:59;;;;;;;0.80;0.80;;;;;;;;;;5017960;28;20116;-26
2024/01/28 05:40:25;;;;;;;0.90;0.82;;;;;;;;;;5018252;28;20022;-30
2024/01/28 05:42:52;;;;;;;0.75;0.50;;;;;;;;;;5018052;28;20026;-32
2024/01/28 05:45:18;;;;;;;1.20;1.10;;;;;;;;;;5017806;28;20168;-30
2024/01/28 05:47:44;;;;;;;1.42;0.80;;;;;;;;;;5018084;28;20033;-30
2024/01/28 05:50:10;;;;;;;1.40;1.30;;;;;;;;;;5018295;28;20030;-32
2024/01/28 05:52:37;;;;;;;0.95;0.95;;;;;;;;;;5017648;28;20029;-29
2024/01/28 05:55:03;;;;;;;0.98;0.98;;;;;;;;;;5017706;28;20026;-28
2024/01/28 05:57:30;;;;;;;0.50;0.50;;;;;;;;;;5017805;28;20029;-27
2024/01/28 05:59:56;;;;;;;1.13;1.00;;;;;;;;;;5017738;28;20034;-28
2024/01/28 06:02:22;;;;;;;1.15;1.02;;;;;;;;;;5017915;28;20025;-28
2024/01/28 06:04:48;;;;;;;1.45;1.02;;;;;;;;;;5018066;28;20366;-30
2024/01/28 06:07:14;;;;;;;1.83;0.80;;;;;;;;;;5017729;28;20117;-29
2024/01/28 06:09:40;;;;;;;0.80;0.80;;;;;;;;;;5017379;28;20022;-30
2024/01/28 06:12:07;;;;;;;0.77;0.77;;;;;;;;;;5017308;28;20026;-32
2024/01/28 06:14:33;;;;;;;0.80;0.70;;;;;;;;;;5017312;28;20026;-30
2024/01/28 06:16:59;;;;;;;2.25;1.05;;;;;;;;;;5017469;28;20037;-30
2024/01/28 06:19:25;;;;;;;0.75;0.75;;;;;;;;;;5017518;28;20156;-28
2024/01/28 06:21:51;;;;;;;0.80;0.80;;;;;;;;;;5017110;28;20037;-27
2024/01/28 06:24:18;;;;;;;1.13;1.00;;;;;;;;;;5017373;28;20084;-28
2024/01/28 06:26:44;;;;;;;1.08;0.98;;;;;;;;;;5017089;28;20036;-32
2024/01/28 06:29:10;;;;;;;1.00;0.90;;;;;;;;;;5017299;28;20022;-31
2024/01/28 06:31:36;;;;;;;0.73;0.73;;;;;;;;;;5017010;28;20369;-30
2024/01/28 06:34:02;;;;;;;1.25;1.15;;;;;;;;;;5016909;28;20032;-30
2024/01/28 06:36:28;;;;;;;0.73;0.73;;;;;;;;;;5016877;28;20203;-32
2024/01/28 06:38:54;;;;;;;0.70;0.70;;;;;;;;;;5017118;28;20457;-28
2024/01/28 06:41:21;;;;;;;0.77;0.77;;;;;;;;;;5016830;28;20034;-26
2024/01/28 06:43:47;;;;;;;1.00;1.00;;;;;;;;;;5016620;28;20449;-27
2024/01/28 06:46:15;;;;;;;1.00;0.90;;;;;;;;;;5017065;28;20053;-28
2024/01/28 06:48:42;;;;;;;0.95;0.93;;;;;;;;;;5016961;28;20357;-31
2024/01/28 06:51:09;;;;;;;1.45;0.80;;;;;;;;;;5016617;28;20048;-28
2024/01/28 06:53:36;;;;;;;0.80;0.77;;;;;;;;;;5016840;28;20154;-32
2024/01/28 06:56:03;;;;;;;1.00;1.00;;;;;;;;;;5016576;28;20044;-31
2024/01/28 06:58:29;;;;;;;0.80;0.70;;;;;;;;;;5016709;28;20357;-30
2024/01/28 07:00:55;;;;;;;1.20;1.10;;;;;;;;;;5016738;28;20026;-30
2024/01/28 07:03:21;;;;;;;1.35;1.05;;;;;;;;;;5016331;28;20042;-27
2024/01/28 07:05:47;;;;;;;0.80;0.80;;;;;;;;;;5016401;28;20097;-28
2024/01/28 07:08:13;;;;;;;1.10;0.90;;;;;;;;;;5016345;28;20453;-31
2024/01/28 07:10:40;;;;;;;0.95;0.80;;;;;;;;;;5016528;28;20036;-31
2024/01/28 07:13:06;;;;;;;0.65;0.65;;;;;;;;;;5015823;28;20050;-33
2024/01/28 07:15:32;;;;;;;0.90;0.90;;;;;;;;;;5016201;28;20032;-32
2024/01/28 07:17:58;;;;;;;2.17;0.60;;;;;;;;;;5016323;28;20057;-32
2024/01/28 07:20:25;;;;;;;0.80;0.80;;;;;;;;;;5015160;28;20025;-27
2024/01/28 07:22:51;;;;;;;1.65;1.00;;;;;;;;;;5015932;28;20453;-31
2024/01/28 07:25:18;;;;;;;1.05;0.95;;;;;;;;;;5015990;28;20088;-29
2024/01/28 07:27:44;;;;;;;0.65;0.60;;;;;;;;;;5016226;28;20461;-30
2024/01/28 07:30:10;;;;;;;0.70;0.70;;;;;;;;;;5015917;28;20037;-28
2024/01/28 07:32:36;;;;;;;0.98;0.80;;;;;;;;;;5014842;28;20026;-30
2024/01/28 07:35:02;;;;;;;1.75;1.05;;;;;;;;;;5016086;28;20068;-31
2024/01/28 07:37:28;;;;;;;0.90;0.90;;;;;;;;;;5015764;28;20057;-31
2024/01/28 07:39:55;;;;;;;1.13;0.85;;;;;;;;;;5015983;28;20041;-32
2024/01/28 07:42:21;;;;;;;0.85;0.85;;;;;;;;;;5015836;28;20033;-30
2024/01/28 07:44:47;;;;;;;1.38;0.95;;;;;;;;;;5015997;28;20029;-31
2024/01/28 07:47:13;;;;;;;0.80;0.80;;;;;;;;;;5015642;28;20121;-31
2024/01/28 07:49:39;;;;;;;1.30;1.20;;;;;;;;;;5016104;28;20066;-29
2024/01/28 07:52:06;;;;;;;0.85;0.70;;;;;;;;;;5015505;28;20406;-29
2024/01/28 07:54:32;;;;;;;0.88;0.80;;;;;;;;;;5015474;28;20026;-28
2024/01/28 07:56:59;;;;;;;0.93;0.77;;;;;;;;;;5015669;28;20081;-31
2024/01/28 07:59:25;;;;;;;0.73;0.73;;;;;;;;;;5015673;28;20346;-30
2024/01/28 08:01:51;;;;;;;1.48;0.75;;;;;;;;;;5015530;28;20437;-29
2024/01/28 08:04:17;;;;;;;1.15;0.85;;;;;;;;;;5015151;28;20050;-30
2024/01/28 08:06:43;;;;;;;0.60;0.60;;;;;;;;;;5015557;28;20032;-27
2024/01/28 08:09:10;;;;;;;0.70;0.70;;;;;;;;;;5015520;28;20022;-26
2024/01/28 08:11:36;;;;;;;0.98;0.77;;;;;;;;;;5015231;28;20026;-28
2024/01/28 08:14:02;;;;;;;1.05;0.75;;;;;;;;;;5015163;28;20048;-31
2024/01/28 08:16:30;;;;;;;0.95;0.85;;;;;;;;;;5015361;28;20018;-32
2024/01/28 08:18:57;;;;;;;1.17;0.88;;;;;;;;;;5015109;28;20026;-30
2024/01/28 08:21:23;;;;;;;0.63;0.63;;;;;;;;;;5015641;28;20159;-28
2024/01/28 08:23:49;;;;;;;0.70;0.70;;;;;;;;;;5014402;28;20021;-28
2024/01/28 08:26:15;;;;;;;0.80;0.80;;;;;;;;;;5015043;28;20465;-33
2024/01/28 08:28:42;;;;;;;0.47;0.47;;;;;;;;;;5014976;28;20042;-32
2024/01/28 08:31:08;;;;;;;1.55;0.90;;;;;;;;;;5015007;28;20113;-31
2024/01/28 08:33:35;;;;;;;0.70;0.70;;;;;;;;;;5015162;28;20044;-29
2024/01/28 08:36:01;;;;;;;1.10;0.80;;;;;;;;;;5014976;28;20051;-31
2024/01/28 08:38:29;;;;;;;1.02;0.90;;;;;;;;;;5014848;28;20030;-30
2024/01/28 08:40:55;;;;;;;0.60;0.60;;;;;;;;;;5014873;28;20022;-31
2024/01/28 08:43:21;;;;;;;0.65;0.60;;;;;;;;;;5014816;28;20515;-29
2024/01/28 08:45:47;;;;;;;0.80;0.80;;;;;;;;;;5015097;28;20026;-30
2024/01/28 08:48:13;;;;;;;0.85;0.70;;;;;;;;;;5014873;28;20080;-28
2024/01/28 08:50:39;;;;;;;1.50;1.02;;;;;;;;;;5015088;28;20026;-26
2024/01/28 08:53:05;;;;;;;1.58;0.70;;;;;;;;;;5014989;28;20407;-30
2024/01/28 08:55:32;;;;;;;1.05;0.68;;;;;;;;;;5015567;28;20033;-29
2024/01/28 08:57:58;;;;;;;0.60;0.60;;;;;;;;;;5014594;28;20030;-31
2024/01/28 09:00:24;;;;;;;0.80;0.60;;;;;;;;;;5014728;28;20026;-27
2024/01/28 09:02:50;;;;;;;1.08;0.80;;;;;;;;;;5014641;28;20022;-32
2024/01/28 09:05:16;;;;;;;1.80;0.70;;;;;;;;;;5014951;28;20037;-31
2024/01/28 09:07:45;;;;;;;1.20;0.90;;;;;;;;;;5014890;28;20042;-30
2024/01/28 09:10:11;;;;;;;0.80;0.77;;;;;;;;;;5014628;28;20337;-32
2024/01/28 09:12:37;;;;;;;1.00;0.82;;;;;;;;;;5014489;28;20029;-35
2024/01/28 09:15:03;;;;;;;1.00;0.90;;;;;;;;;;5014554;28;20041;-26
2024/01/28 09:17:30;;;;;;;0.98;0.93;;;;;;;;;;5014729;28;20029;-33
2024/01/28 09:19:56;;;;;;;1.40;1.02;;;;;;;;;;5014780;28;20041;-31
2024/01/28 09:22:22;;;;;;;1.08;0.70;;;;;;;;;;5013487;28;20185;-28
2024/01/28 09:24:49;;;;;;;0.68;0.60;;;;;;;;;;5014430;28;20031;-30
2024/01/28 09:27:15;;;;;;;0.65;0.65;;;;;;;;;;5014506;28;20380;-28
2024/01/28 09:29:41;;;;;;;0.90;0.90;;;;;;;;;;5014686;28;20338;-29
2024/01/28 09:32:08;;;;;;;1.00;0.70;;;;;;;;;;5014623;28;20419;-29
2024/01/28 09:34:34;;;;;;;0.77;0.75;;;;;;;;;;5014417;28;20051;-29
2024/01/28 09:37:01;;;;;;;1.02;0.93;;;;;;;;;;5017888;28;20037;-31
2024/01/28 09:39:29;;;;;;;0.73;0.70;;;;;;;;;;5018019;28;20028;-31
2024/01/28 09:42:10;;;;;;;0.60;0.60;;;;;;;;;;5017832;28;20057;-31
2024/01/28 09:44:37;;;;;;;1.17;0.73;;;;;;;;;;5017918;28;20044;-30
2024/01/28 09:47:03;;;;;;;1.95;0.80;;;;;;;;;;5018155;28;20109;-29
2024/01/28 09:49:31;;;;;;;0.85;0.65;;;;;;;;;;5018376;28;20509;-32
2024/01/28 09:51:57;;;;;;;0.75;0.63;;;;;;;;;;5017710;28;20084;-30
2024/01/28 09:54:24;;;;;;;1.10;0.80;;;;;;;;;;5018296;28;20057;-30
2024/01/28 09:56:50;;;;;;;0.75;0.70;;;;;;;;;;5018383;28;20038;-31
2024/01/28 09:59:16;;;;;;;0.88;0.88;;;;;;;;;;5017897;28;20040;-30
2024/01/28 10:01:43;;;;;;;1.08;0.98;;;;;;;;;;5017538;28;20036;-31
2024/01/28 10:04:15;;;;;;;1.08;0.93;;;;;;;;;;5017496;28;20050;-31
2024/01/28 10:06:42;;;;;;;1.02;0.77;;;;;;;;;;5017800;28;20156;-31
2024/01/28 10:09:08;;;;;;;1.33;0.63;;;;;;;;;;5017727;28;20461;-30
2024/01/28 10:11:35;;;;;;;1.05;0.73;;;;;;;;;;5017387;28;20492;-30
2024/01/28 10:14:01;;;;;;;1.45;0.88;;;;;;;;;;5017354;28;20357;-30
2024/01/28 10:16:32;;;;;;;0.93;0.82;;;;;;;;;;5017621;28;20085;-31
2024/01/28 10:18:58;;;;;;;0.85;0.70;;;;;;;;;;5017629;28;20029;-27
2024/01/28 10:21:25;;;;;;;0.77;0.60;;;;;;;;;;5017822;28;20026;-27
2024/01/28 10:23:51;;;;;;;1.08;0.80;;;;;;;;;;5017138;28;20088;-28
2024/01/28 10:26:18;;;;;;;2.47;0.98;;;;;;;;;;5017693;28;20342;-30
2024/01/28 10:28:44;;;;;;;0.63;0.63;;;;;;;;;;5017075;28;20032;-29
2024/01/28 10:31:10;;;;;;;0.70;0.70;;;;;;;;;;5017102;28;20091;-31
2024/01/28 10:33:36;;;;;;;0.70;0.70;;;;;;;;;;5016960;28;20109;-32
2024/01/28 10:36:05;;;;;;;0.50;0.50;;;;;;;;;;5017264;28;20029;-29
2024/01/28 10:38:34;;;;;;;0.60;0.50;;;;;;;;;;5017135;28;20386;-27
2024/01/28 10:41:00;;;;;;;0.50;0.50;;;;;;;;;;5016889;28;20030;-31
2024/01/28 10:43:27;;;;;;;1.02;0.98;;;;;;;;;;5017109;28;20022;-32
2024/01/28 10:45:55;;;;;;;0.70;0.70;;;;;;;;;;5016793;28;20034;-29
2024/01/28 10:48:23;;;;;;;0.50;0.50;;;;;;;;;;5015839;28;20026;-29
2024/01/28 10:50:51;;;;;;;0.60;0.60;;;;;;;;;;5016666;28;20033;-30
2024/01/28 10:53:19;;;;;;;0.70;0.52;;;;;;;;;;5016561;28;20030;-26
2024/01/28 10:55:45;;;;;;;0.52;0.52;;;;;;;;;;5016822;28;20025;-27
2024/01/28 10:58:16;;;;;;;1.00;0.90;;;;;;;;;;5016740;28;20416;-28
2024/01/28 11:00:42;;;;;;;0.70;0.50;;;;;;;;;;5016557;28;20025;-28
2024/01/28 11:03:09;;;;;;;0.60;0.60;;;;;;;;;;5016293;28;20068;-29
2024/01/28 11:05:38;;;;;;;0.82;0.68;;;;;;;;;;5016731;28;20029;-30
2024/01/28 11:08:04;;;;;;;0.98;0.70;;;;;;;;;;5017139;28;20352;-32
2024/01/28 11:10:31;;;;;;;2.15;0.80;;;;;;;;;;5016322;28;20026;-30
2024/01/28 11:12:57;;;;;;;0.85;0.77;;;;;;;;;;5016158;28;20029;-30
2024/01/28 11:15:26;;;;;;;0.88;0.77;;;;;;;;;;5016517;28;20029;-29
2024/01/28 11:17:52;;;;;;;0.68;0.63;;;;;;;;;;5016055;28;20034;-29
2024/01/28 11:20:27;;;;;;;0.73;0.70;;;;;;;;;;5016412;28;20345;-29
2024/01/28 11:22:54;;;;;;;0.80;0.80;;;;;;;;;;5016021;28;20132;-32
2024/01/28 11:25:24;;;;;;;0.80;0.70;;;;;;;;;;5016075;28;20037;-34
2024/01/28 11:27:57;;;;;;;0.65;0.65;;;;;;;;;;5016230;28;20450;-35
2024/01/28 11:30:24;;;;;;;0.70;0.70;;;;;;;;;;5016245;28;20026;-28
2024/01/28 11:32:56;;;;;;;1.25;0.60;;;;;;;;;;5015964;28;20034;-30
2024/01/28 11:35:25;;;;;;;0.70;0.70;;;;;;;;;;5016422;28;20109;-32
2024/01/28 11:37:52;;;;;;;1.02;0.77;;;;;;;;;;5015737;28;20033;-31
2024/01/28 11:40:23;;;;;;;0.75;0.75;;;;;;;;;;5016525;28;20080;-31
2024/01/28 11:42:51;;;;;;;0.70;0.70;;;;;;;;;;5015982;28;20026;-30
2024/01/28 11:45:18;;;;;;;0.77;0.77;;;;;;;;;;5015615;28;20104;-30
2024/01/28 11:47:44;;;;;;;1.02;0.57;;;;;;;;;;5015672;28;20034;-31
2024/01/28 11:50:10;;;;;;;0.50;0.50;;;;;;;;;;5015858;28;20121;-30
2024/01/28 11:52:36;;;;;;;0.75;0.70;;;;;;;;;;5015856;28;20034;-32
2024/01/28 11:55:13;;;;;;;0.60;0.57;;;;;;;;;;5015780;28;20025;-27
2024/01/28 11:57:43;;;;;;;0.80;0.65;;;;;;;;;;5015252;28;20054;-29
2024/01/28 12:00:13;;;;;;;0.88;0.88;;;;;;;;;;5015439;28;20029;-30
2024/01/28 12:02:40;;;;;;;0.45;0.45;;;;;;;;;;5015735;28;20018;-30
2024/01/28 12:05:07;;;;;;;0.75;0.75;;;;;;;;;;5015289;28;20132;-32
2024/01/28 12:07:42;;;;;;;0.60;0.60;;;;;;;;;;5015576;28;20034;-31
2024/01/28 12:10:12;;;;;;;0.68;0.68;;;;;;;;;;5015632;28;20358;-30
2024/01/28 12:12:41;;;;;;;0.90;0.90;;;;;;;;;;5015590;28;20030;-31
2024/01/28 12:15:08;;;;;;;0.75;0.75;;;;;;;;;;5015221;28;20021;-30
2024/01/28 12:17:37;;;;;;;1.25;0.60;;;;;;;;;;5015118;28;20120;-31
2024/01/28 12:20:04;;;;;;;0.95;0.70;;;;;;;;;;5015414;28;20029;-28
2024/01/28 12:22:41;;;;;;;0.80;0.80;;;;;;;;;;5015030;28;20031;-29
2024/01/28 12:25:10;;;;;;;0.60;0.60;;;;;;;;;;5015100;28;20029;-28
2024/01/28 12:27:37;;;;;;;0.70;0.70;;;;;;;;;;5015327;28;20036;-31
2024/01/28 12:30:03;;;;;;;0.73;0.73;;;;;;;;;;5015317;28;20036;-29
2024/01/28 12:32:30;;;;;;;0.68;0.68;;;;;;;;;;5015182;28;20132;-36
2024/01/28 12:34:57;;;;;;;1.00;0.93;;;;;;;;;;5014978;28;20041;-29
2024/01/28 12:37:24;;;;;;;0.60;0.60;;;;;;;;;;5015113;28;20030;-31
2024/01/28 12:39:50;;;;;;;0.98;0.90;;;;;;;;;;5015133;28;20022;-30
2024/01/28 12:42:18;;;;;;;0.60;0.60;;;;;;;;;;5015035;28;20022;-29
2024/01/28 12:44:45;;;;;;;0.70;0.70;;;;;;;;;;5015100;28;20017;-32
2024/01/28 12:47:11;;;;;;;0.60;0.60;;;;;;;;;;5014846;28;20080;-34
2024/01/28 12:49:37;;;;;;;0.75;0.70;;;;;;;;;;5015084;28;20099;-31
2024/01/28 12:52:03;;;;;;;0.85;0.80;;;;;;;;;;5014714;28;20026;-28
2024/01/28 12:54:29;;;;;;;0.57;0.57;;;;;;;;;;5014735;28;20026;-28
2024/01/28 12:56:55;;;;;;;0.70;0.70;;;;;;;;;;5014659;28;20034;-27
2024/01/28 12:59:21;;;;;;;0.80;0.80;;;;;;;;;;5014752;28;20030;-30
2024/01/28 13:01:51;;;;;;;0.95;0.93;;;;;;;;;;5014699;28;20029;-30
2024/01/28 13:04:17;;;;;;;0.63;0.63;;;;;;;;;;5014466;28;20046;-32
2024/01/28 13:06:43;;;;;;;0.60;0.60;;;;;;;;;;5014673;28;20100;-26
2024/01/28 13:09:12;;;;;;;0.80;0.80;;;;;;;;;;5014621;28;20022;-30
2024/01/28 13:11:38;;;;;;;0.60;0.60;;;;;;;;;;5017846;28;20018;-28
2024/01/28 13:14:04;;;;;;;0.77;0.77;;;;;;;;;;5018447;28;20044;-26
2024/01/28 13:16:31;;;;;;;0.70;0.70;;;;;;;;;;5018470;28;20037;-30
2024/01/28 13:18:58;;;;;;;0.88;0.88;;;;;;;;;;5018598;28;20024;-32
2024/01/28 13:21:24;;;;;;;1.23;0.88;;;;;;;;;;5018403;28;20091;-32
2024/01/28 13:23:51;;;;;;;0.60;0.60;;;;;;;;;;5018260;28;20083;-30
2024/01/28 13:26:21;;;;;;;1.00;0.90;;;;;;;;;;5018266;28;20026;-31
2024/01/28 13:28:48;;;;;;;1.48;0.77;;;;;;;;;;5018549;28;20469;-30
2024/01/28 13:31:14;;;;;;;0.68;0.68;;;;;;;;;;5018434;28;20044;-29
2024/01/28 13:33:40;;;;;;;0.73;0.73;;;;;;;;;;5018186;28;20026;-26
2024/01/28 13:36:06;;;;;;;0.80;0.77;;;;;;;;;;5018364;28;20480;-31
2024/01/28 13:38:32;;;;;;;0.73;0.70;;;;;;;;;;5018037;28;20030;-33
2024/01/28 13:40:58;;;;;;;0.90;0.90;;;;;;;;;;5018534;28;20348;-29
2024/01/28 13:43:24;;;;;;;0.85;0.80;;;;;;;;;;5018008;28;20102;-32
2024/01/28 13:45:51;;;;;;;0.68;0.68;;;;;;;;;;5017900;28;20038;-29
2024/01/28 13:48:18;;;;;;;0.90;0.63;;;;;;;;;;5017795;28;20045;-31
2024/01/28 13:50:44;;;;;;;0.80;0.80;;;;;;;;;;5018067;28;20101;-30
2024/01/28 13:53:10;;;;;;;0.95;0.60;;;;;;;;;;5017757;28;20041;-26
2024/01/28 13:55:37;;;;;;;0.60;0.60;;;;;;;;;;5017978;28;20034;-27
2024/01/28 13:58:03;;;;;;;0.60;0.60;;;;;;;;;;5017631;28;20029;-27
2024/01/28 14:00:29;;;;;;;0.50;0.50;;;;;;;;;;5017901;28;20037;-26
2024/01/28 14:02:55;;;;;;;0.70;0.70;;;;;;;;;;5017567;28;20026;-29
2024/01/28 14:05:21;;;;;;;0.77;0.77;;;;;;;;;;5017848;28;20033;-31
2024/01/28 14:07:47;;;;;;;0.88;0.88;;;;;;;;;;5017762;28;20026;-34
2024/01/28 14:10:14;;;;;;;0.82;0.82;;;;;;;;;;5017768;28;20109;-30
2024/01/28 14:12:40;;;;;;;0.82;0.82;;;;;;;;;;5017881;28;20034;-31
2024/01/28 14:15:08;;;;;;;1.00;0.90;;;;;;;;;;5017666;28;20057;-31
2024/01/28 14:17:35;;;;;;;0.70;0.70;;;;;;;;;;5017536;28;20034;-30
2024/01/28 14:20:01;;;;;;;0.70;0.70;;;;;;;;;;5017575;28;20165;-30
2024/01/28 14:22:28;;;;;;;0.90;0.90;;;;;;;;;;5015843;28;20021;-29
2024/01/28 14:24:54;;;;;;;0.57;0.57;;;;;;;;;;5017149;28;20026;-31
2024/01/28 14:27:21;;;;;;;0.77;0.77;;;;;;;;;;5017176;28;20036;-29
2024/01/28 14:29:47;;;;;;;0.60;0.60;;;;;;;;;;5017654;28;20331;-28
2024/01/28 14:32:13;;;;;;;0.65;0.55;;;;;;;;;;5017261;28;20517;-26
2024/01/28 14:34:39;;;;;;;0.70;0.70;;;;;;;;;;5017028;28;20091;-27
2024/01/28 14:37:05;;;;;;;0.75;0.70;;;;;;;;;;5016931;28;20030;-28
2024/01/28 14:39:32;;;;;;;0.80;0.80;;;;;;;;;;5016932;28;20461;-28